sensor_id;sensor_type;location;lat;lon;timestamp;pressure;altitude;pressure_sealevel;temperature;humidity
7754;BME280;3921;42.266;23.122;2023-02-02T00:01:32;95859.75;;;4.81;65.11
7754;BME280;3921;42.266;23.122;2023-02-02T00:03:59;95855.75;;;4.88;64.97
7754;BME280;3921;42.266;23.122;2023-02-02T00:06:28;95370.22;;;1.92;65.09
7754;BME280;3921;42.266;23.122;2023-02-02T00:08:58;95867.06;;;4.75;66.34
7754;BME280;3921;42.266;23.122;2023-02-02T00:11:25;95745.19;;;4.03;65.86
7754;BME280;3921;42.266;23.122;2023-02-02T00:13:53;95714.56;;;3.69;65.59
7754;BME280;3921;42.266;23.122;2023-02-02T00:16:41;95808.63;;;4.58;65.57
7754;BME280;3921;42.266;23.122;2023-02-02T00:19:12;95746.34;;;4.17;65.75
7754;BME280;3921;42.266;23.122;2023-02-02T00:21:40;95868.81;;;4.77;66.01
7754;BME280;3921;42.266;23.122;2023-02-02T00:24:11;95613.13;;;3.18;65.92
7754;BME280;3921;42.266;23.122;2023-02-02T00:26:40;95614.41;;;3.37;65.73
7754;BME280;3921;42.266;23.122;2023-02-02T00:29:12;95831.44;;;4.76;65.75
7754;BME280;3921;42.266;23.122;2023-02-02T00:31:39;95821.03;;;4.56;65.70
7754;BME280;3921;42.266;23.122;2023-02-02T00:34:08;95781.16;;;4.17;66.19
7754;BME280;3921;42.266;23.122;2023-02-02T00:36:35;95753.66;;;4.11;66.25
7754;BME280;3921;42.266;23.122;2023-02-02T00:39:02;95780.44;;;4.22;65.88
7754;BME280;3921;42.266;23.122;2023-02-02T00:41:30;95598.81;;;3.08;65.82
7754;BME280;3921;42.266;23.122;2023-02-02T00:43:57;95593.28;;;3.19;66.62
7754;BME280;3921;42.266;23.122;2023-02-02T00:46:42;95854.88;;;4.86;66.58
7754;BME280;3921;42.266;23.122;2023-02-02T00:49:09;95589.94;;;3.17;66.19
7754;BME280;3921;42.266;23.122;2023-02-02T00:51:36;95767.53;;;4.37;66.14
7754;BME280;3921;42.266;23.122;2023-02-02T00:54:03;95764.16;;;4.35;66.71
7754;BME280;3921;42.266;23.122;2023-02-02T00:56:32;95694.25;;;3.87;66.42
7754;BME280;3921;42.266;23.122;2023-02-02T00:58:59;95847.44;;;4.87;66.49
7754;BME280;3921;42.266;23.122;2023-02-02T01:01:26;95446.59;;;2.39;65.72
7754;BME280;3921;42.266;23.122;2023-02-02T01:03:53;95539.81;;;2.98;65.52
7754;BME280;3921;42.266;23.122;2023-02-02T01:06:20;95821.69;;;4.49;66.35
7754;BME280;3921;42.266;23.122;2023-02-02T01:08:47;95856.50;;;4.84;65.99
7754;BME280;3921;42.266;23.122;2023-02-02T01:11:14;95848.09;;;4.80;66.21
7754;BME280;3921;42.266;23.122;2023-02-02T01:13:42;95800.56;;;4.32;65.62
7754;BME280;3921;42.266;23.122;2023-02-02T01:16:10;95731.84;;;4.00;65.82
7754;BME280;3921;42.266;23.122;2023-02-02T01:18:42;95411.81;;;2.03;65.49
7754;BME280;3921;42.266;23.122;2023-02-02T01:21:21;95504.75;;;2.51;65.64
7754;BME280;3921;42.266;23.122;2023-02-02T01:23:48;95358.59;;;1.89;64.94
7754;BME280;3921;42.266;23.122;2023-02-02T01:26:15;95666.44;;;3.67;65.72
7754;BME280;3921;42.266;23.122;2023-02-02T01:28:44;95840.84;;;4.89;65.00
7754;BME280;3921;42.266;23.122;2023-02-02T01:31:12;95669.19;;;3.78;65.25
7754;BME280;3921;42.266;23.122;2023-02-02T01:33:40;95839.88;;;4.83;65.56
7754;BME280;3921;42.266;23.122;2023-02-02T01:36:11;95769.00;;;4.29;65.26
7754;BME280;3921;42.266;23.122;2023-02-02T01:38:39;95743.44;;;3.98;66.31
7754;BME280;3921;42.266;23.122;2023-02-02T01:41:08;95633.59;;;3.42;65.99
7754;BME280;3921;42.266;23.122;2023-02-02T01:44:03;95790.94;;;4.47;66.28
7754;BME280;3921;42.266;23.122;2023-02-02T01:46:32;95817.69;;;4.56;66.22
7754;BME280;3921;42.266;23.122;2023-02-02T01:49:04;95803.59;;;4.56;66.19
7754;BME280;3921;42.266;23.122;2023-02-02T01:51:39;95384.97;;;2.20;65.66
7754;BME280;3921;42.266;23.122;2023-02-02T01:54:10;95731.44;;;4.18;66.16
7754;BME280;3921;42.266;23.122;2023-02-02T01:56:46;95770.41;;;4.54;65.54
7754;BME280;3921;42.266;23.122;2023-02-02T01:59:17;95446.69;;;2.43;65.78
7754;BME280;3921;42.266;23.122;2023-02-02T02:01:46;95818.19;;;4.77;66.34
7754;BME280;3921;42.266;23.122;2023-02-02T02:04:14;95720.47;;;4.09;66.16
7754;BME280;3921;42.266;23.122;2023-02-02T02:06:41;95820.69;;;4.77;66.21
7754;BME280;3921;42.266;23.122;2023-02-02T02:09:09;95739.00;;;4.23;65.98
7754;BME280;3921;42.266;23.122;2023-02-02T02:11:36;95831.56;;;4.82;65.53
7754;BME280;3921;42.266;23.122;2023-02-02T02:14:06;95714.13;;;4.21;65.65
7754;BME280;3921;42.266;23.122;2023-02-02T02:17:00;95656.81;;;3.79;64.63
7754;BME280;3921;42.266;23.122;2023-02-02T02:19:55;95706.94;;;3.97;65.02
7754;BME280;3921;42.266;23.122;2023-02-02T02:23:07;95682.41;;;3.75;65.56
7754;BME280;3921;42.266;23.122;2023-02-02T02:26:10;95809.31;;;4.52;66.47
7754;BME280;3921;42.266;23.122;2023-02-02T02:29:16;95800.88;;;4.45;66.45
7754;BME280;3921;42.266;23.122;2023-02-02T02:34:44;95741.53;;;3.88;67.16
7754;BME280;3921;42.266;23.122;2023-02-02T02:37:18;95838.06;;;4.39;66.89
7754;BME280;3921;42.266;23.122;2023-02-02T02:39:53;95813.44;;;4.50;66.86
7754;BME280;3921;42.266;23.122;2023-02-02T02:42:24;95284.84;;;1.14;67.08
7754;BME280;3921;42.266;23.122;2023-02-02T02:44:53;95746.72;;;3.63;67.34
7754;BME280;3921;42.266;23.122;2023-02-02T02:47:23;95462.16;;;2.01;67.00
7754;BME280;3921;42.266;23.122;2023-02-02T02:49:51;95817.16;;;4.31;67.46
7754;BME280;3921;42.266;23.122;2023-02-02T02:52:18;95704.22;;;3.54;66.72
7754;BME280;3921;42.266;23.122;2023-02-02T02:54:49;95538.44;;;2.43;67.58
7754;BME280;3921;42.266;23.122;2023-02-02T02:57:39;95349.09;;;1.11;66.94
7754;BME280;3921;42.266;23.122;2023-02-02T03:00:20;95842.63;;;4.22;67.01
7754;BME280;3921;42.266;23.122;2023-02-02T03:02:59;95324.72;;;0.95;67.07
7754;BME280;3921;42.266;23.122;2023-02-02T03:05:33;95751.66;;;3.61;67.20
7754;BME280;3921;42.266;23.122;2023-02-02T03:08:08;95836.53;;;4.10;67.78
7754;BME280;3921;42.266;23.122;2023-02-02T03:10:39;95750.59;;;3.53;67.33
7754;BME280;3921;42.266;23.122;2023-02-02T03:13:08;95824.97;;;4.12;67.20
7754;BME280;3921;42.266;23.122;2023-02-02T03:15:38;95685.22;;;2.89;67.37
7754;BME280;3921;42.266;23.122;2023-02-02T03:18:07;95846.81;;;3.90;67.83
7754;BME280;3921;42.266;23.122;2023-02-02T03:20:34;95722.09;;;3.07;67.30
7754;BME280;3921;42.266;23.122;2023-02-02T03:23:01;95603.13;;;2.50;67.40
7754;BME280;3921;42.266;23.122;2023-02-02T03:25:28;95758.59;;;3.41;67.71
7754;BME280;3921;42.266;23.122;2023-02-02T03:27:57;95837.59;;;3.86;67.61
7754;BME280;3921;42.266;23.122;2023-02-02T03:30:24;95717.53;;;3.23;67.19
7754;BME280;3921;42.266;23.122;2023-02-02T03:32:51;95719.81;;;3.15;67.44
7754;BME280;3921;42.266;23.122;2023-02-02T03:35:19;95596.59;;;2.54;67.11
7754;BME280;3921;42.266;23.122;2023-02-02T03:37:46;95700.28;;;3.27;67.19
7754;BME280;3921;42.266;23.122;2023-02-02T03:40:14;95661.38;;;2.95;67.59
7754;BME280;3921;42.266;23.122;2023-02-02T03:42:40;95391.88;;;1.37;67.13
7754;BME280;3921;42.266;23.122;2023-02-02T03:45:08;95713.31;;;3.20;67.43
7754;BME280;3921;42.266;23.122;2023-02-02T03:47:35;95490.69;;;1.58;68.22
7754;BME280;3921;42.266;23.122;2023-02-02T03:50:03;95699.44;;;2.95;68.35
7754;BME280;3921;42.266;23.122;2023-02-02T03:52:31;95502.84;;;1.79;67.78
7754;BME280;3921;42.266;23.122;2023-02-02T03:54:58;95634.28;;;2.72;67.90
7754;BME280;3921;42.266;23.122;2023-02-02T03:57:25;95673.56;;;2.87;68.32
7754;BME280;3921;42.266;23.122;2023-02-02T03:59:52;95423.03;;;1.29;68.35
7754;BME280;3921;42.266;23.122;2023-02-02T04:02:19;95710.72;;;2.84;68.67
7754;BME280;3921;42.266;23.122;2023-02-02T04:04:46;95705.31;;;2.99;67.82
7754;BME280;3921;42.266;23.122;2023-02-02T04:07:13;95657.34;;;2.68;68.20
7754;BME280;3921;42.266;23.122;2023-02-02T04:09:41;95252.31;;;0.13;68.15
7754;BME280;3921;42.266;23.122;2023-02-02T04:12:08;95719.09;;;2.87;68.60
7754;BME280;3921;42.266;23.122;2023-02-02T04:14:35;95684.72;;;2.41;68.86
7754;BME280;3921;42.266;23.122;2023-02-02T04:17:03;95830.78;;;3.47;68.96
7754;BME280;3921;42.266;23.122;2023-02-02T04:19:30;95490.63;;;1.55;68.23
7754;BME280;3921;42.266;23.122;2023-02-02T04:21:56;95495.75;;;1.61;68.38
7754;BME280;3921;42.266;23.122;2023-02-02T04:24:25;95774.56;;;2.89;68.21
7754;BME280;3921;42.266;23.122;2023-02-02T04:26:53;95881.34;;;3.50;68.83
7754;BME280;3921;42.266;23.122;2023-02-02T04:29:20;95801.91;;;3.21;68.84
7754;BME280;3921;42.266;23.122;2023-02-02T04:31:47;95717.03;;;2.74;68.27
7754;BME280;3921;42.266;23.122;2023-02-02T04:34:14;95705.56;;;2.78;68.16
7754;BME280;3921;42.266;23.122;2023-02-02T04:36:40;95682.63;;;2.55;69.03
7754;BME280;3921;42.266;23.122;2023-02-02T04:39:09;95654.75;;;2.35;67.87
7754;BME280;3921;42.266;23.122;2023-02-02T04:41:37;95715.69;;;2.85;67.62
7754;BME280;3921;42.266;23.122;2023-02-02T04:44:12;95842.47;;;3.50;67.90
7754;BME280;3921;42.266;23.122;2023-02-02T04:46:39;95848.00;;;3.41;68.08
7754;BME280;3921;42.266;23.122;2023-02-02T04:49:07;95730.13;;;2.69;67.90
7754;BME280;3921;42.266;23.122;2023-02-02T04:51:35;95759.63;;;2.88;67.86
7754;BME280;3921;42.266;23.122;2023-02-02T04:54:02;95824.22;;;3.19;67.54
7754;BME280;3921;42.266;23.122;2023-02-02T04:56:28;95750.81;;;2.69;67.65
7754;BME280;3921;42.266;23.122;2023-02-02T04:58:55;95581.78;;;1.67;67.65
7754;BME280;3921;42.266;23.122;2023-02-02T05:01:24;95631.72;;;2.09;67.49
7754;BME280;3921;42.266;23.122;2023-02-02T05:03:51;95552.47;;;1.53;67.70
7754;BME280;3921;42.266;23.122;2023-02-02T05:06:29;95320.56;;;0.11;68.02
7754;BME280;3921;42.266;23.122;2023-02-02T05:08:56;95429.94;;;0.84;67.60
7754;BME280;3921;42.266;23.122;2023-02-02T05:11:23;95629.31;;;2.12;66.91
7754;BME280;3921;42.266;23.122;2023-02-02T05:13:51;95866.53;;;3.53;67.13
7754;BME280;3921;42.266;23.122;2023-02-02T05:16:19;95839.34;;;3.27;67.25
7754;BME280;3921;42.266;23.122;2023-02-02T05:18:50;95876.72;;;3.62;67.24
7754;BME280;3921;42.266;23.122;2023-02-02T05:21:17;95886.69;;;3.63;67.35
7754;BME280;3921;42.266;23.122;2023-02-02T05:23:46;95889.19;;;3.63;67.16
7754;BME280;3921;42.266;23.122;2023-02-02T05:26:15;95656.81;;;2.20;67.33
7754;BME280;3921;42.266;23.122;2023-02-02T05:28:45;95720.63;;;2.54;67.53
7754;BME280;3921;42.266;23.122;2023-02-02T05:31:12;95728.91;;;2.54;67.04
7754;BME280;3921;42.266;23.122;2023-02-02T05:33:39;95761.38;;;2.92;66.77
7754;BME280;3921;42.266;23.122;2023-02-02T05:36:08;95880.97;;;3.66;66.42
7754;BME280;3921;42.266;23.122;2023-02-02T05:38:35;95868.03;;;3.47;66.94
7754;BME280;3921;42.266;23.122;2023-02-02T05:41:02;95754.94;;;2.69;67.20
7754;BME280;3921;42.266;23.122;2023-02-02T05:43:31;95890.59;;;3.25;68.73
7754;BME280;3921;42.266;23.122;2023-02-02T05:45:58;95347.97;;;0.17;67.62
7754;BME280;3921;42.266;23.122;2023-02-02T05:48:25;95551.44;;;1.47;67.31
7754;BME280;3921;42.266;23.122;2023-02-02T05:50:57;95297.38;;;-0.19;67.15
7754;BME280;3921;42.266;23.122;2023-02-02T05:53:30;95786.47;;;2.73;67.68
7754;BME280;3921;42.266;23.122;2023-02-02T05:55:57;95902.00;;;3.49;67.67
7754;BME280;3921;42.266;23.122;2023-02-02T05:58:24;95520.81;;;1.16;67.55
7754;BME280;3921;42.266;23.122;2023-02-02T06:00:52;95738.19;;;2.33;67.34
7754;BME280;3921;42.266;23.122;2023-02-02T06:03:19;95710.56;;;2.21;67.57
7754;BME280;3921;42.266;23.122;2023-02-02T06:05:46;95379.81;;;-0.16;68.41
7754;BME280;3921;42.266;23.122;2023-02-02T06:08:13;95772.94;;;2.34;68.90
7754;BME280;3921;42.266;23.122;2023-02-02T06:10:42;95774.59;;;2.34;69.00
7754;BME280;3921;42.266;23.122;2023-02-02T06:13:09;95542.63;;;1.01;68.90
7754;BME280;3921;42.266;23.122;2023-02-02T06:18:11;95366.63;;;0.09;68.52
7754;BME280;3921;42.266;23.122;2023-02-02T06:20:40;95896.88;;;3.14;68.22
7754;BME280;3921;42.266;23.122;2023-02-02T06:23:07;95796.22;;;2.66;68.22
7754;BME280;3921;42.266;23.122;2023-02-02T06:25:34;95918.22;;;3.36;68.45
7754;BME280;3921;42.266;23.122;2023-02-02T06:28:03;95797.16;;;2.42;69.31
7754;BME280;3921;42.266;23.122;2023-02-02T06:30:31;95745.47;;;2.28;68.59
7754;BME280;3921;42.266;23.122;2023-02-02T06:32:58;95395.69;;;0.16;67.92
7754;BME280;3921;42.266;23.122;2023-02-02T06:35:25;95602.25;;;1.36;67.80
7754;BME280;3921;42.266;23.122;2023-02-02T06:37:52;95854.59;;;2.82;67.44
7754;BME280;3921;42.266;23.122;2023-02-02T06:40:19;95942.22;;;3.35;67.78
7754;BME280;3921;42.266;23.122;2023-02-02T06:42:46;95945.72;;;3.42;67.58
7754;BME280;3921;42.266;23.122;2023-02-02T06:45:15;95736.13;;;2.18;67.22
7754;BME280;3921;42.266;23.122;2023-02-02T06:47:57;95858.97;;;2.91;67.23
7754;BME280;3921;42.266;23.122;2023-02-02T06:50:25;95843.50;;;2.71;67.84
7754;BME280;3921;42.266;23.122;2023-02-02T06:52:56;95953.34;;;3.48;67.37
7754;BME280;3921;42.266;23.122;2023-02-02T06:55:27;95836.22;;;2.76;67.89
7754;BME280;3921;42.266;23.122;2023-02-02T06:57:59;95667.91;;;1.77;67.74
7754;BME280;3921;42.266;23.122;2023-02-02T07:00:32;95486.88;;;0.60;67.77
7754;BME280;3921;42.266;23.122;2023-02-02T07:03:03;95575.91;;;1.11;68.20
7754;BME280;3921;42.266;23.122;2023-02-02T07:05:30;95946.31;;;3.33;68.17
7754;BME280;3921;42.266;23.122;2023-02-02T07:07:59;95920.31;;;3.22;69.13
7754;BME280;3921;42.266;23.122;2023-02-02T07:10:26;95735.38;;;2.22;68.59
7754;BME280;3921;42.266;23.122;2023-02-02T07:12:53;95871.66;;;3.00;69.17
7754;BME280;3921;42.266;23.122;2023-02-02T07:15:25;95421.22;;;0.17;69.31
7754;BME280;3921;42.266;23.122;2023-02-02T07:17:54;95882.34;;;3.26;68.74
7754;BME280;3921;42.266;23.122;2023-02-02T07:20:21;95775.00;;;2.48;68.39
7754;BME280;3921;42.266;23.122;2023-02-02T07:22:51;95816.66;;;2.86;68.42
7754;BME280;3921;42.266;23.122;2023-02-02T07:25:18;95753.66;;;2.53;68.20
7754;BME280;3921;42.266;23.122;2023-02-02T07:27:45;95557.50;;;1.02;68.46
7754;BME280;3921;42.266;23.122;2023-02-02T07:30:12;95930.34;;;3.55;68.28
7754;BME280;3921;42.266;23.122;2023-02-02T07:32:45;95394.13;;;0.45;67.62
7754;BME280;3921;42.266;23.122;2023-02-02T07:35:14;95729.47;;;2.46;67.85
7754;BME280;3921;42.266;23.122;2023-02-02T07:37:41;95681.56;;;2.18;67.44
7754;BME280;3921;42.266;23.122;2023-02-02T07:40:10;95808.50;;;2.90;68.37
7754;BME280;3921;42.266;23.122;2023-02-02T07:42:38;95750.22;;;2.76;67.96
7754;BME280;3921;42.266;23.122;2023-02-02T07:45:05;95834.00;;;3.15;68.02
7754;BME280;3921;42.266;23.122;2023-02-02T07:47:32;95490.75;;;1.04;67.89
7754;BME280;3921;42.266;23.122;2023-02-02T07:50:00;95561.19;;;1.42;67.71
7754;BME280;3921;42.266;23.122;2023-02-02T07:52:29;95873.09;;;3.51;68.10
7754;BME280;3921;42.266;23.122;2023-02-02T07:54:56;95888.41;;;3.66;68.49
7754;BME280;3921;42.266;23.122;2023-02-02T07:57:23;95648.97;;;2.34;68.16
7754;BME280;3921;42.266;23.122;2023-02-02T07:59:50;95912.19;;;3.88;67.88
7754;BME280;3921;42.266;23.122;2023-02-02T08:02:19;95530.09;;;1.50;67.68
7754;BME280;3921;42.266;23.122;2023-02-02T08:04:46;95452.00;;;1.04;67.88
7754;BME280;3921;42.266;23.122;2023-02-02T08:07:13;95838.66;;;3.63;67.71
7754;BME280;3921;42.266;23.122;2023-02-02T08:09:46;95799.03;;;3.67;67.59
7754;BME280;3921;42.266;23.122;2023-02-02T08:12:13;95512.56;;;2.01;67.23
7754;BME280;3921;42.266;23.122;2023-02-02T08:14:43;95651.41;;;2.63;67.18
7754;BME280;3921;42.266;23.122;2023-02-02T08:17:10;95675.56;;;3.00;67.21
7754;BME280;3921;42.266;23.122;2023-02-02T08:19:37;95948.94;;;4.30;67.77
7754;BME280;3921;42.266;23.122;2023-02-02T08:22:04;95757.78;;;3.42;67.40
7754;BME280;3921;42.266;23.122;2023-02-02T08:24:31;95726.69;;;3.25;67.99
7754;BME280;3921;42.266;23.122;2023-02-02T08:27:00;95858.63;;;3.99;67.98
7754;BME280;3921;42.266;23.122;2023-02-02T08:29:27;95410.13;;;1.11;67.66
7754;BME280;3921;42.266;23.122;2023-02-02T08:31:54;95550.00;;;2.42;66.93
7754;BME280;3921;42.266;23.122;2023-02-02T08:34:21;95799.34;;;3.81;67.34
7754;BME280;3921;42.266;23.122;2023-02-02T08:36:48;95495.41;;;2.09;67.46
7754;BME280;3921;42.266;23.122;2023-02-02T08:39:15;95779.56;;;3.84;67.61
7754;BME280;3921;42.266;23.122;2023-02-02T08:41:42;95571.41;;;2.70;67.52
7754;BME280;3921;42.266;23.122;2023-02-02T08:44:12;95546.19;;;2.55;67.23
7754;BME280;3921;42.266;23.122;2023-02-02T08:46:40;95430.59;;;1.64;67.29
7754;BME280;3921;42.266;23.122;2023-02-02T08:49:09;95852.00;;;4.33;67.18
7754;BME280;3921;42.266;23.122;2023-02-02T08:51:36;95753.94;;;3.88;67.59
7754;BME280;3921;42.266;23.122;2023-02-02T08:54:04;95791.69;;;4.07;67.83
7754;BME280;3921;42.266;23.122;2023-02-02T08:56:30;95805.56;;;4.32;67.45
7754;BME280;3921;42.266;23.122;2023-02-02T08:58:57;95537.38;;;2.66;66.18
7754;BME280;3921;42.266;23.122;2023-02-02T09:01:28;95866.28;;;4.76;65.67
7754;BME280;3921;42.266;23.122;2023-02-02T09:03:58;95713.88;;;3.75;65.18
7754;BME280;3921;42.266;23.122;2023-02-02T09:06:27;95502.53;;;2.61;64.71
7754;BME280;3921;42.266;23.122;2023-02-02T09:08:55;95661.97;;;3.52;64.00
7754;BME280;3921;42.266;23.122;2023-02-02T09:11:22;95891.63;;;4.96;64.13
7754;BME280;3921;42.266;23.122;2023-02-02T09:13:53;95831.63;;;4.85;64.11
7754;BME280;3921;42.266;23.122;2023-02-02T09:16:21;95525.00;;;3.01;64.55
7754;BME280;3921;42.266;23.122;2023-02-02T09:18:49;95804.22;;;4.84;63.60
7754;BME280;3921;42.266;23.122;2023-02-02T09:21:18;95756.41;;;4.59;63.62
7754;BME280;3921;42.266;23.122;2023-02-02T09:23:46;95719.66;;;4.47;63.05
7754;BME280;3921;42.266;23.122;2023-02-02T09:26:15;95518.31;;;3.33;62.13
7754;BME280;3921;42.266;23.122;2023-02-02T09:28:43;95758.44;;;4.77;62.17
7754;BME280;3921;42.266;23.122;2023-02-02T09:31:11;95669.81;;;4.05;62.39
7754;BME280;3921;42.266;23.122;2023-02-02T09:33:39;95436.63;;;2.71;62.26
7754;BME280;3921;42.266;23.122;2023-02-02T09:36:10;95808.53;;;5.33;62.89
7754;BME280;3921;42.266;23.122;2023-02-02T09:38:38;95731.22;;;4.86;62.38
7754;BME280;3921;42.266;23.122;2023-02-02T09:41:30;95818.91;;;5.54;62.24
7754;BME280;3921;42.266;23.122;2023-02-02T09:44:04;95704.84;;;4.94;62.48
7754;BME280;3921;42.266;23.122;2023-02-02T09:46:44;95552.56;;;3.85;62.40
7754;BME280;3921;42.266;23.122;2023-02-02T09:49:16;95440.19;;;3.20;62.31
7754;BME280;3921;42.266;23.122;2023-02-02T09:51:50;95569.25;;;4.32;62.23
7754;BME280;3921;42.266;23.122;2023-02-02T09:54:25;95807.75;;;5.79;62.43
7754;BME280;3921;42.266;23.122;2023-02-02T09:56:54;95600.63;;;4.69;62.34
7754;BME280;3921;42.266;23.122;2023-02-02T09:59:26;95625.19;;;4.96;62.48
7754;BME280;3921;42.266;23.122;2023-02-02T10:01:57;95626.19;;;5.05;62.30
7754;BME280;3921;42.266;23.122;2023-02-02T10:04:32;95255.63;;;2.76;62.53
7754;BME280;3921;42.266;23.122;2023-02-02T10:07:06;95356.34;;;3.47;62.38
7754;BME280;3921;42.266;23.122;2023-02-02T10:09:39;95597.81;;;4.97;62.42
7754;BME280;3921;42.266;23.122;2023-02-02T10:12:20;95748.59;;;6.21;62.98
7754;BME280;3921;42.266;23.122;2023-02-02T10:14:54;95708.41;;;6.04;62.28
7754;BME280;3921;42.266;23.122;2023-02-02T10:17:37;95734.03;;;6.48;62.79
7754;BME280;3921;42.266;23.122;2023-02-02T10:20:17;95559.69;;;5.54;62.08
7754;BME280;3921;42.266;23.122;2023-02-02T10:22:47;95677.41;;;6.47;61.40
7754;BME280;3921;42.266;23.122;2023-02-02T10:25:15;95422.78;;;5.04;59.38
7754;BME280;3921;42.266;23.122;2023-02-02T10:27:51;95615.88;;;6.51;59.26
7754;BME280;3921;42.266;23.122;2023-02-02T10:30:27;95488.81;;;5.96;57.61
7754;BME280;3921;42.266;23.122;2023-02-02T10:33:03;95587.78;;;6.70;56.90
7754;BME280;3921;42.266;23.122;2023-02-02T10:35:35;95226.69;;;4.85;56.66
7754;BME280;3921;42.266;23.122;2023-02-02T10:38:12;95395.81;;;6.06;53.31
7754;BME280;3921;42.266;23.122;2023-02-02T10:40:53;95402.84;;;6.46;53.98
7754;BME280;3921;42.266;23.122;2023-02-02T10:43:46;95713.59;;;8.62;52.19
7754;BME280;3921;42.266;23.122;2023-02-02T10:46:22;95717.88;;;8.86;52.41
7754;BME280;3921;42.266;23.122;2023-02-02T10:48:49;95469.31;;;7.42;51.61
7754;BME280;3921;42.266;23.122;2023-02-02T10:51:20;95546.38;;;8.12;50.49
7754;BME280;3921;42.266;23.122;2023-02-02T10:53:52;95232.22;;;6.36;48.70
7754;BME280;3921;42.266;23.122;2023-02-02T10:56:23;95667.81;;;9.11;49.06
7754;BME280;3921;42.266;23.122;2023-02-02T10:58:58;95243.16;;;6.53;48.64
7754;BME280;3921;42.266;23.122;2023-02-02T11:01:28;95585.06;;;8.72;48.65
7754;BME280;3921;42.266;23.122;2023-02-02T11:03:55;95303.31;;;6.99;48.37
7754;BME280;3921;42.266;23.122;2023-02-02T11:06:42;95651.16;;;9.25;47.75
7754;BME280;3921;42.266;23.122;2023-02-02T11:09:21;95594.25;;;8.72;47.82
7754;BME280;3921;42.266;23.122;2023-02-02T11:11:52;95583.41;;;8.85;47.94
7754;BME280;3921;42.266;23.122;2023-02-02T11:14:29;95692.16;;;9.47;47.11
7754;BME280;3921;42.266;23.122;2023-02-02T11:17:02;95432.91;;;8.01;47.92
7754;BME280;3921;42.266;23.122;2023-02-02T11:19:30;95473.88;;;8.32;47.45
7754;BME280;3921;42.266;23.122;2023-02-02T11:22:00;95509.88;;;8.56;48.11
7754;BME280;3921;42.266;23.122;2023-02-02T11:24:31;95506.53;;;8.64;48.41
7754;BME280;3921;42.266;23.122;2023-02-02T11:27:02;95540.78;;;8.62;49.22
7754;BME280;3921;42.266;23.122;2023-02-02T11:29:33;95391.16;;;7.82;47.99
7754;BME280;3921;42.266;23.122;2023-02-02T11:32:25;95587.63;;;9.11;47.27
7754;BME280;3921;42.266;23.122;2023-02-02T11:38:07;95550.00;;;8.94;46.42
7754;BME280;3921;42.266;23.122;2023-02-02T11:40:38;95280.06;;;7.06;46.50
7754;BME280;3921;42.266;23.122;2023-02-02T11:43:15;95456.38;;;8.34;46.96
7754;BME280;3921;42.266;23.122;2023-02-02T11:45:44;95243.44;;;7.11;46.54
7754;BME280;3921;42.266;23.122;2023-02-02T11:48:16;95499.03;;;8.67;46.30
7754;BME280;3921;42.266;23.122;2023-02-02T11:50:45;95568.44;;;9.13;46.53
7754;BME280;3921;42.266;23.122;2023-02-02T11:53:22;95437.19;;;8.42;46.65
7754;BME280;3921;42.266;23.122;2023-02-02T11:55:52;95140.06;;;6.68;46.14
7754;BME280;3921;42.266;23.122;2023-02-02T11:58:22;95186.75;;;6.97;46.37
7754;BME280;3921;42.266;23.122;2023-02-02T12:00:58;95254.31;;;7.23;45.40
7754;BME280;3921;42.266;23.122;2023-02-02T12:03:34;95414.69;;;8.54;45.90
7754;BME280;3921;42.266;23.122;2023-02-02T12:06:16;95624.44;;;9.94;45.36
7754;BME280;3921;42.266;23.122;2023-02-02T12:08:44;95423.88;;;8.75;45.04
7754;BME280;3921;42.266;23.122;2023-02-02T12:11:32;95265.25;;;7.83;44.91
7754;BME280;3921;42.266;23.122;2023-02-02T12:14:22;95404.69;;;8.72;45.47
7754;BME280;3921;42.266;23.122;2023-02-02T12:17:03;95231.06;;;7.95;44.42
7754;BME280;3921;42.266;23.122;2023-02-02T12:25:38;95579.19;;;10.14;44.12
7754;BME280;3921;42.266;23.122;2023-02-02T12:28:20;95418.03;;;9.14;44.35
7754;BME280;3921;42.266;23.122;2023-02-02T12:31:02;95289.47;;;8.54;44.32
7754;BME280;3921;42.266;23.122;2023-02-02T12:33:40;95126.03;;;7.39;43.93
7754;BME280;3921;42.266;23.122;2023-02-02T12:36:26;95537.38;;;10.05;44.83
7754;BME280;3921;42.266;23.122;2023-02-02T12:39:09;95563.28;;;10.24;44.39
7754;BME280;3921;42.266;23.122;2023-02-02T12:41:48;95146.06;;;7.69;44.45
7754;BME280;3921;42.266;23.122;2023-02-02T12:44:29;95449.66;;;9.72;44.11
7754;BME280;3921;42.266;23.122;2023-02-02T12:47:11;95427.09;;;9.64;44.47
7754;BME280;3921;42.266;23.122;2023-02-02T12:49:54;95423.78;;;9.51;44.53
7754;BME280;3921;42.266;23.122;2023-02-02T12:52:40;95482.16;;;10.01;43.08
7754;BME280;3921;42.266;23.122;2023-02-02T12:55:24;95492.97;;;10.20;43.41
7754;BME280;3921;42.266;23.122;2023-02-02T12:58:00;95429.56;;;9.76;42.98
7754;BME280;3921;42.266;23.122;2023-02-02T13:00:42;95521.34;;;10.51;42.66
7754;BME280;3921;42.266;23.122;2023-02-02T13:03:26;95414.50;;;9.73;42.89
7754;BME280;3921;42.266;23.122;2023-02-02T13:06:08;95382.75;;;9.63;42.78
7754;BME280;3921;42.266;23.122;2023-02-02T13:08:46;95541.47;;;10.45;43.45
7754;BME280;3921;42.266;23.122;2023-02-02T13:11:17;95523.84;;;10.48;43.31
7754;BME280;3921;42.266;23.122;2023-02-02T13:14:06;95278.56;;;8.90;42.87
7754;BME280;3921;42.266;23.122;2023-02-02T13:16:37;95191.84;;;8.23;43.26
7754;BME280;3921;42.266;23.122;2023-02-02T13:19:12;95398.72;;;9.48;43.85
7754;BME280;3921;42.266;23.122;2023-02-02T13:21:42;95218.56;;;8.23;44.07
7754;BME280;3921;42.266;23.122;2023-02-02T13:24:18;95403.78;;;9.41;43.49
7754;BME280;3921;42.266;23.122;2023-02-02T13:26:50;95357.03;;;9.03;43.08
7754;BME280;3921;42.266;23.122;2023-02-02T13:29:23;95329.53;;;8.75;42.13
7754;BME280;3921;42.266;23.122;2023-02-02T13:31:59;95420.47;;;9.46;43.29
7754;BME280;3921;42.266;23.122;2023-02-02T13:34:37;95058.53;;;7.04;43.01
7754;BME280;3921;42.266;23.122;2023-02-02T13:37:12;95053.56;;;7.10;42.61
7754;BME280;3921;42.266;23.122;2023-02-02T13:39:46;95182.75;;;7.81;42.95
7754;BME280;3921;42.266;23.122;2023-02-02T13:42:24;95459.66;;;9.73;43.12
7754;BME280;3921;42.266;23.122;2023-02-02T13:44:57;95420.50;;;9.16;43.31
7754;BME280;3921;42.266;23.122;2023-02-02T13:47:34;95389.63;;;9.12;43.50
7754;BME280;3921;42.266;23.122;2023-02-02T13:53:07;95393.78;;;9.13;44.24
7754;BME280;3921;42.266;23.122;2023-02-02T13:56:01;95371.25;;;9.01;44.44
7754;BME280;3921;42.266;23.122;2023-02-02T13:58:46;95376.25;;;9.07;43.31
7754;BME280;3921;42.266;23.122;2023-02-02T14:01:16;95443.03;;;9.45;42.60
7754;BME280;3921;42.266;23.122;2023-02-02T14:03:51;95231.09;;;8.00;43.49